sensor_id;sensor_type;location;lat;lon;timestamp;temperature;humidity
55777;DHT22;54079;44.540;18.784;2023-02-26T00:00:29;7.00;88.60
55777;DHT22;54079;44.540;18.784;2023-02-26T00:02:55;6.90;88.10
55777;DHT22;54079;44.540;18.784;2023-02-26T00:05:21;6.70;89.30
55777;DHT22;54079;44.540;18.784;2023-02-26T00:07:47;6.60;88.50
55777;DHT22;54079;44.540;18.784;2023-02-26T00:10:13;6.20;89.50
55777;DHT22;54079;44.540;18.784;2023-02-26T00:12:42;6.40;90.50
55777;DHT22;54079;44.540;18.784;2023-02-26T00:15:10;6.40;91.00
55777;DHT22;54079;44.540;18.784;2023-02-26T00:17:53;6.30;90.00
55777;DHT22;54079;44.540;18.784;2023-02-26T00:20:20;6.30;89.90
55777;DHT22;54079;44.540;18.784;2023-02-26T00:22:47;6.20;90.70
55777;DHT22;54079;44.540;18.784;2023-02-26T00:25:13;6.30;90.60
55777;DHT22;54079;44.540;18.784;2023-02-26T00:27:39;6.40;90.50
55777;DHT22;54079;44.540;18.784;2023-02-26T00:30:07;6.20;90.60
55777;DHT22;54079;44.540;18.784;2023-02-26T00:32:34;6.30;90.90
55777;DHT22;54079;44.540;18.784;2023-02-26T00:35:00;6.20;89.60
55777;DHT22;54079;44.540;18.784;2023-02-26T00:38:15;6.20;90.50
55777;DHT22;54079;44.540;18.784;2023-02-26T00:40:38;5.90;93.40
55777;DHT22;54079;44.540;18.784;2023-02-26T00:43:07;5.60;93.60
55777;DHT22;54079;44.540;18.784;2023-02-26T00:45:34;5.60;94.90
55777;DHT22;54079;44.540;18.784;2023-02-26T00:50:54;6.00;94.10
55777;DHT22;54079;44.540;18.784;2023-02-26T00:53:33;6.10;96.80
55777;DHT22;54079;44.540;18.784;2023-02-26T00:56:00;6.20;92.90
55777;DHT22;54079;44.540;18.784;2023-02-26T00:58:26;6.30;93.50
55777;DHT22;54079;44.540;18.784;2023-02-26T01:00:52;6.40;92.40
55777;DHT22;54079;44.540;18.784;2023-02-26T01:03:18;6.30;90.60
55777;DHT22;54079;44.540;18.784;2023-02-26T01:05:44;6.20;91.20
55777;DHT22;54079;44.540;18.784;2023-02-26T01:10:47;5.50;95.60
55777;DHT22;54079;44.540;18.784;2023-02-26T01:13:13;5.60;99.20
55777;DHT22;54079;44.540;18.784;2023-02-26T01:15:42;5.70;97.20
55777;DHT22;54079;44.540;18.784;2023-02-26T01:18:20;5.80;97.00
55777;DHT22;54079;44.540;18.784;2023-02-26T01:20:53;6.00;98.50
55777;DHT22;54079;44.540;18.784;2023-02-26T01:23:22;6.00;92.90
55777;DHT22;54079;44.540;18.784;2023-02-26T01:25:53;6.00;92.60
55777;DHT22;54079;44.540;18.784;2023-02-26T01:28:22;6.20;93.80
55777;DHT22;54079;44.540;18.784;2023-02-26T01:30:51;6.30;93.00
55777;DHT22;54079;44.540;18.784;2023-02-26T01:33:39;6.20;92.30
55777;DHT22;54079;44.540;18.784;2023-02-26T01:36:20;6.30;91.20
55777;DHT22;54079;44.540;18.784;2023-02-26T01:41:51;6.30;91.10
55777;DHT22;54079;44.540;18.784;2023-02-26T01:49:48;6.10;91.00
55777;DHT22;54079;44.540;18.784;2023-02-26T01:54:59;6.40;91.20
55777;DHT22;54079;44.540;18.784;2023-02-26T01:57:25;6.50;91.00
55777;DHT22;54079;44.540;18.784;2023-02-26T01:59:51;6.50;90.80
55777;DHT22;54079;44.540;18.784;2023-02-26T02:02:20;6.50;90.20
55777;DHT22;54079;44.540;18.784;2023-02-26T02:04:47;6.30;88.90
55777;DHT22;54079;44.540;18.784;2023-02-26T02:07:14;6.20;90.10
55777;DHT22;54079;44.540;18.784;2023-02-26T02:09:41;6.30;89.00
55777;DHT22;54079;44.540;18.784;2023-02-26T02:18:23;5.60;88.70
55777;DHT22;54079;44.540;18.784;2023-02-26T02:23:51;5.60;90.70
55777;DHT22;54079;44.540;18.784;2023-02-26T02:27:02;5.80;89.70
55777;DHT22;54079;44.540;18.784;2023-02-26T02:32:27;5.70;87.10
55777;DHT22;54079;44.540;18.784;2023-02-26T02:35:03;5.70;88.30
55777;DHT22;54079;44.540;18.784;2023-02-26T02:37:43;5.60;87.70
55777;DHT22;54079;44.540;18.784;2023-02-26T02:40:21;5.60;88.70
55777;DHT22;54079;44.540;18.784;2023-02-26T02:45:40;5.60;88.20
55777;DHT22;54079;44.540;18.784;2023-02-26T02:48:34;5.40;88.90
55777;DHT22;54079;44.540;18.784;2023-02-26T02:51:00;5.30;89.30
55777;DHT22;54079;44.540;18.784;2023-02-26T02:53:49;5.30;88.90
55777;DHT22;54079;44.540;18.784;2023-02-26T02:56:26;5.30;88.30
55777;DHT22;54079;44.540;18.784;2023-02-26T02:59:10;5.20;89.00
55777;DHT22;54079;44.540;18.784;2023-02-26T03:01:37;5.00;89.90
55777;DHT22;54079;44.540;18.784;2023-02-26T03:04:08;4.90;90.50
55777;DHT22;54079;44.540;18.784;2023-02-26T03:06:34;4.90;90.50
55777;DHT22;54079;44.540;18.784;2023-02-26T03:09:01;4.90;90.70
55777;DHT22;54079;44.540;18.784;2023-02-26T03:11:29;5.00;90.60
55777;DHT22;54079;44.540;18.784;2023-02-26T03:13:55;4.80;91.10
55777;DHT22;54079;44.540;18.784;2023-02-26T03:19:28;4.90;90.90
55777;DHT22;54079;44.540;18.784;2023-02-26T03:27:47;4.90;91.70
55777;DHT22;54079;44.540;18.784;2023-02-26T03:30:31;4.90;91.40
55777;DHT22;54079;44.540;18.784;2023-02-26T03:36:29;4.80;91.00
55777;DHT22;54079;44.540;18.784;2023-02-26T03:41:35;4.70;90.90
55777;DHT22;54079;44.540;18.784;2023-02-26T03:44:08;4.70;91.30
55777;DHT22;54079;44.540;18.784;2023-02-26T03:46:44;4.70;91.40
55777;DHT22;54079;44.540;18.784;2023-02-26T03:49:16;4.60;91.40
55777;DHT22;54079;44.540;18.784;2023-02-26T03:51:44;4.50;91.90
55777;DHT22;54079;44.540;18.784;2023-02-26T03:54:20;4.40;92.10
55777;DHT22;54079;44.540;18.784;2023-02-26T03:56:47;4.30;94.50
55777;DHT22;54079;44.540;18.784;2023-02-26T03:59:14;4.30;94.40
55777;DHT22;54079;44.540;18.784;2023-02-26T04:02:11;4.30;92.60
55777;DHT22;54079;44.540;18.784;2023-02-26T04:04:44;4.30;93.30
55777;DHT22;54079;44.540;18.784;2023-02-26T04:07:12;4.40;92.60
55777;DHT22;54079;44.540;18.784;2023-02-26T04:09:48;4.40;91.10
55777;DHT22;54079;44.540;18.784;2023-02-26T04:12:23;4.30;94.30
55777;DHT22;54079;44.540;18.784;2023-02-26T04:14:50;4.30;94.60
55777;DHT22;54079;44.540;18.784;2023-02-26T04:17:16;4.20;93.30
55777;DHT22;54079;44.540;18.784;2023-02-26T04:19:42;4.10;94.10
55777;DHT22;54079;44.540;18.784;2023-02-26T04:22:09;4.00;93.80
55777;DHT22;54079;44.540;18.784;2023-02-26T04:24:35;4.10;93.60
55777;DHT22;54079;44.540;18.784;2023-02-26T04:27:01;4.10;92.60
55777;DHT22;54079;44.540;18.784;2023-02-26T04:29:27;4.00;93.60
55777;DHT22;54079;44.540;18.784;2023-02-26T04:31:53;3.80;94.10
55777;DHT22;54079;44.540;18.784;2023-02-26T04:34:19;3.80;94.90
55777;DHT22;54079;44.540;18.784;2023-02-26T04:36:45;3.70;96.00
55777;DHT22;54079;44.540;18.784;2023-02-26T04:39:11;3.70;97.00
55777;DHT22;54079;44.540;18.784;2023-02-26T04:41:38;3.60;95.90
55777;DHT22;54079;44.540;18.784;2023-02-26T04:44:04;3.60;96.00
55777;DHT22;54079;44.540;18.784;2023-02-26T04:46:30;3.60;95.60
55777;DHT22;54079;44.540;18.784;2023-02-26T04:48:56;3.50;95.50
55777;DHT22;54079;44.540;18.784;2023-02-26T04:51:22;3.50;98.30
55777;DHT22;54079;44.540;18.784;2023-02-26T04:53:48;3.50;97.20
55777;DHT22;54079;44.540;18.784;2023-02-26T04:56:14;3.40;98.60
55777;DHT22;54079;44.540;18.784;2023-02-26T04:58:40;3.40;99.90
55777;DHT22;54079;44.540;18.784;2023-02-26T05:01:06;3.50;99.30
55777;DHT22;54079;44.540;18.784;2023-02-26T05:03:32;3.40;95.80
55777;DHT22;54079;44.540;18.784;2023-02-26T05:05:59;3.20;98.60
55777;DHT22;54079;44.540;18.784;2023-02-26T05:08:25;3.00;99.70
55777;DHT22;54079;44.540;18.784;2023-02-26T05:10:51;2.80;99.90
55777;DHT22;54079;44.540;18.784;2023-02-26T05:13:18;2.70;99.90
55777;DHT22;54079;44.540;18.784;2023-02-26T05:15:44;2.80;99.90
55777;DHT22;54079;44.540;18.784;2023-02-26T05:18:11;3.00;99.90
55777;DHT22;54079;44.540;18.784;2023-02-26T05:20:37;3.00;99.90
55777;DHT22;54079;44.540;18.784;2023-02-26T05:23:03;2.90;99.90
55777;DHT22;54079;44.540;18.784;2023-02-26T05:25:29;3.00;99.90
55777;DHT22;54079;44.540;18.784;2023-02-26T05:27:55;3.00;99.90
55777;DHT22;54079;44.540;18.784;2023-02-26T05:30:21;2.70;99.90
55777;DHT22;54079;44.540;18.784;2023-02-26T05:32:47;2.90;99.90
55777;DHT22;54079;44.540;18.784;2023-02-26T05:35:13;3.00;99.90
55777;DHT22;54079;44.540;18.784;2023-02-26T05:37:40;3.10;99.90
55777;DHT22;54079;44.540;18.784;2023-02-26T05:40:07;3.20;99.90
55777;DHT22;54079;44.540;18.784;2023-02-26T05:42:37;3.40;99.90
55777;DHT22;54079;44.540;18.784;2023-02-26T05:45:04;3.40;99.90
55777;DHT22;54079;44.540;18.784;2023-02-26T05:47:32;3.50;99.90
55777;DHT22;54079;44.540;18.784;2023-02-26T05:49:58;3.60;99.90
55777;DHT22;54079;44.540;18.784;2023-02-26T05:52:24;3.70;99.90
55777;DHT22;54079;44.540;18.784;2023-02-26T05:54:50;3.50;99.90
55777;DHT22;54079;44.540;18.784;2023-02-26T05:57:16;3.40;99.90
55777;DHT22;54079;44.540;18.784;2023-02-26T05:59:42;3.40;99.90
55777;DHT22;54079;44.540;18.784;2023-02-26T06:02:08;3.50;99.90
55777;DHT22;54079;44.540;18.784;2023-02-26T06:04:34;3.60;99.90
55777;DHT22;54079;44.540;18.784;2023-02-26T06:07:01;3.60;99.90
55777;DHT22;54079;44.540;18.784;2023-02-26T06:09:27;3.60;99.90
55777;DHT22;54079;44.540;18.784;2023-02-26T06:11:52;3.60;99.90
55777;DHT22;54079;44.540;18.784;2023-02-26T06:14:18;3.70;99.90
55777;DHT22;54079;44.540;18.784;2023-02-26T06:16:45;3.80;99.90
55777;DHT22;54079;44.540;18.784;2023-02-26T06:19:11;3.80;99.90
55777;DHT22;54079;44.540;18.784;2023-02-26T06:21:36;3.80;99.90
55777;DHT22;54079;44.540;18.784;2023-02-26T06:24:03;3.80;99.90
55777;DHT22;54079;44.540;18.784;2023-02-26T06:26:29;3.90;99.90
55777;DHT22;54079;44.540;18.784;2023-02-26T06:28:55;3.90;99.00
55777;DHT22;54079;44.540;18.784;2023-02-26T06:31:21;3.90;99.90
55777;DHT22;54079;44.540;18.784;2023-02-26T06:33:46;3.90;99.90
55777;DHT22;54079;44.540;18.784;2023-02-26T06:36:12;4.00;98.80
55777;DHT22;54079;44.540;18.784;2023-02-26T06:38:38;4.00;98.20
55777;DHT22;54079;44.540;18.784;2023-02-26T06:41:04;4.00;98.90
55777;DHT22;54079;44.540;18.784;2023-02-26T06:43:30;4.00;98.70
55777;DHT22;54079;44.540;18.784;2023-02-26T06:45:59;4.10;99.30
55777;DHT22;54079;44.540;18.784;2023-02-26T06:48:26;4.10;99.10
55777;DHT22;54079;44.540;18.784;2023-02-26T06:50:52;4.00;97.10
55777;DHT22;54079;44.540;18.784;2023-02-26T06:53:18;4.10;98.50
55777;DHT22;54079;44.540;18.784;2023-02-26T06:55:45;4.20;96.20
55777;DHT22;54079;44.540;18.784;2023-02-26T06:58:11;4.20;94.20
55777;DHT22;54079;44.540;18.784;2023-02-26T07:00:38;4.20;95.40
55777;DHT22;54079;44.540;18.784;2023-02-26T07:03:05;4.20;93.90
55777;DHT22;54079;44.540;18.784;2023-02-26T07:05:31;4.20;95.90
55777;DHT22;54079;44.540;18.784;2023-02-26T07:07:57;4.30;97.00
55777;DHT22;54079;44.540;18.784;2023-02-26T07:10:25;4.40;96.30
55777;DHT22;54079;44.540;18.784;2023-02-26T07:12:53;4.50;95.60
55777;DHT22;54079;44.540;18.784;2023-02-26T07:15:19;4.60;96.40
55777;DHT22;54079;44.540;18.784;2023-02-26T07:17:45;4.80;95.40
55777;DHT22;54079;44.540;18.784;2023-02-26T07:20:11;4.90;93.80
55777;DHT22;54079;44.540;18.784;2023-02-26T07:22:38;4.90;93.80
55777;DHT22;54079;44.540;18.784;2023-02-26T07:25:05;5.00;93.50
55777;DHT22;54079;44.540;18.784;2023-02-26T07:27:32;5.00;91.70
55777;DHT22;54079;44.540;18.784;2023-02-26T07:30:01;5.10;93.40
55777;DHT22;54079;44.540;18.784;2023-02-26T07:32:27;5.20;92.10
55777;DHT22;54079;44.540;18.784;2023-02-26T07:34:53;5.20;91.10
55777;DHT22;54079;44.540;18.784;2023-02-26T07:37:19;5.30;91.50
55777;DHT22;54079;44.540;18.784;2023-02-26T07:39:45;5.30;91.80
55777;DHT22;54079;44.540;18.784;2023-02-26T07:42:11;5.50;91.60
55777;DHT22;54079;44.540;18.784;2023-02-26T07:44:37;5.60;91.80
55777;DHT22;54079;44.540;18.784;2023-02-26T07:47:03;5.80;90.20
55777;DHT22;54079;44.540;18.784;2023-02-26T07:49:29;5.80;90.90
55777;DHT22;54079;44.540;18.784;2023-02-26T07:51:57;5.90;90.10
55777;DHT22;54079;44.540;18.784;2023-02-26T07:54:23;6.00;87.00
55777;DHT22;54079;44.540;18.784;2023-02-26T07:56:49;6.00;88.80
55777;DHT22;54079;44.540;18.784;2023-02-26T07:59:15;6.00;86.70
55777;DHT22;54079;44.540;18.784;2023-02-26T08:01:41;6.10;86.70
55777;DHT22;54079;44.540;18.784;2023-02-26T08:04:07;6.20;87.90
55777;DHT22;54079;44.540;18.784;2023-02-26T08:06:33;6.30;87.70
55777;DHT22;54079;44.540;18.784;2023-02-26T08:09:00;6.30;85.40
55777;DHT22;54079;44.540;18.784;2023-02-26T08:11:26;6.40;88.00
55777;DHT22;54079;44.540;18.784;2023-02-26T08:13:52;6.50;84.70
55777;DHT22;54079;44.540;18.784;2023-02-26T08:16:19;6.30;85.10
55777;DHT22;54079;44.540;18.784;2023-02-26T08:18:45;6.20;87.10
55777;DHT22;54079;44.540;18.784;2023-02-26T08:21:11;6.10;85.40
55777;DHT22;54079;44.540;18.784;2023-02-26T08:23:37;6.10;86.80
55777;DHT22;54079;44.540;18.784;2023-02-26T08:26:05;6.30;87.60
55777;DHT22;54079;44.540;18.784;2023-02-26T08:28:32;6.50;86.20
55777;DHT22;54079;44.540;18.784;2023-02-26T08:30:59;6.60;84.80
55777;DHT22;54079;44.540;18.784;2023-02-26T08:33:26;6.60;82.00
55777;DHT22;54079;44.540;18.784;2023-02-26T08:35:52;6.70;84.80
55777;DHT22;54079;44.540;18.784;2023-02-26T08:38:19;6.90;85.30
55777;DHT22;54079;44.540;18.784;2023-02-26T08:40:48;7.00;82.00
55777;DHT22;54079;44.540;18.784;2023-02-26T08:43:14;6.90;82.30
55777;DHT22;54079;44.540;18.784;2023-02-26T08:45:40;6.80;82.40
55777;DHT22;54079;44.540;18.784;2023-02-26T08:48:06;6.80;81.50
55777;DHT22;54079;44.540;18.784;2023-02-26T08:50:32;6.90;81.80
55777;DHT22;54079;44.540;18.784;2023-02-26T08:52:58;6.70;81.50
55777;DHT22;54079;44.540;18.784;2023-02-26T08:55:24;6.70;81.20
55777;DHT22;54079;44.540;18.784;2023-02-26T08:57:50;6.80;85.10
55777;DHT22;54079;44.540;18.784;2023-02-26T09:00:16;7.00;83.30
55777;DHT22;54079;44.540;18.784;2023-02-26T09:02:43;7.10;81.20
55777;DHT22;54079;44.540;18.784;2023-02-26T09:05:09;7.00;81.10
55777;DHT22;54079;44.540;18.784;2023-02-26T09:07:37;7.20;83.20
55777;DHT22;54079;44.540;18.784;2023-02-26T09:10:04;7.30;80.00
55777;DHT22;54079;44.540;18.784;2023-02-26T09:12:31;7.40;79.20
55777;DHT22;54079;44.540;18.784;2023-02-26T09:14:56;7.70;82.00
55777;DHT22;54079;44.540;18.784;2023-02-26T09:17:24;7.80;79.70
55777;DHT22;54079;44.540;18.784;2023-02-26T09:19:50;8.00;78.20
55777;DHT22;54079;44.540;18.784;2023-02-26T09:22:16;8.10;78.60
55777;DHT22;54079;44.540;18.784;2023-02-26T09:24:42;8.10;78.50
55777;DHT22;54079;44.540;18.784;2023-02-26T09:27:08;8.10;78.20
55777;DHT22;54079;44.540;18.784;2023-02-26T09:29:34;8.10;78.00
55777;DHT22;54079;44.540;18.784;2023-02-26T10:51:39;6.30;84.00
55777;DHT22;54079;44.540;18.784;2023-02-26T10:54:19;8.10;75.60
55777;DHT22;54079;44.540;18.784;2023-02-26T10:56:45;8.30;75.70
55777;DHT22;54079;44.540;18.784;2023-02-26T10:59:12;8.20;75.00
55777;DHT22;54079;44.540;18.784;2023-02-26T11:01:38;8.00;76.10
55777;DHT22;54079;44.540;18.784;2023-02-26T11:04:05;7.80;75.30
55777;DHT22;54079;44.540;18.784;2023-02-26T11:06:43;7.80;76.00
55777;DHT22;54079;44.540;18.784;2023-02-26T11:11:53;8.20;74.00
55777;DHT22;54079;44.540;18.784;2023-02-26T11:25:52;8.30;75.10
55777;DHT22;54079;44.540;18.784;2023-02-26T11:28:30;9.20;73.40
55777;DHT22;54079;44.540;18.784;2023-02-26T11:30:56;9.20;69.60
55777;DHT22;54079;44.540;18.784;2023-02-26T11:33:37;8.90;70.70
55777;DHT22;54079;44.540;18.784;2023-02-26T11:36:17;8.20;72.40
55777;DHT22;54079;44.540;18.784;2023-02-26T11:38:45;8.00;73.10
55777;DHT22;54079;44.540;18.784;2023-02-26T11:41:12;8.20;72.90
55777;DHT22;54079;44.540;18.784;2023-02-26T11:43:41;8.40;73.30
55777;DHT22;54079;44.540;18.784;2023-02-26T11:46:09;8.40;71.30
55777;DHT22;54079;44.540;18.784;2023-02-26T11:48:47;8.40;71.10
55777;DHT22;54079;44.540;18.784;2023-02-26T11:51:18;8.50;73.40
55777;DHT22;54079;44.540;18.784;2023-02-26T11:53:48;8.50;71.50
55777;DHT22;54079;44.540;18.784;2023-02-26T11:56:40;8.50;71.80
55777;DHT22;54079;44.540;18.784;2023-02-26T11:59:21;8.60;72.10
55777;DHT22;54079;44.540;18.784;2023-02-26T12:01:48;8.90;71.20
55777;DHT22;54079;44.540;18.784;2023-02-26T12:04:19;9.40;69.30
55777;DHT22;54079;44.540;18.784;2023-02-26T12:06:48;9.70;69.30
55777;DHT22;54079;44.540;18.784;2023-02-26T12:09:15;9.60;68.80
55777;DHT22;54079;44.540;18.784;2023-02-26T12:14:57;9.30;69.40
55777;DHT22;54079;44.540;18.784;2023-02-26T12:20:13;9.40;69.20
55777;DHT22;54079;44.540;18.784;2023-02-26T12:30:40;8.40;71.10
55777;DHT22;54079;44.540;18.784;2023-02-26T12:36:35;8.40;72.00
55777;DHT22;54079;44.540;18.784;2023-02-26T12:39:25;8.40;71.70
55777;DHT22;54079;44.540;18.784;2023-02-26T12:42:05;8.30;71.40
55777;DHT22;54079;44.540;18.784;2023-02-26T12:50:25;8.10;72.90
55777;DHT22;54079;44.540;18.784;2023-02-26T12:56:53;8.30;72.20
55777;DHT22;54079;44.540;18.784;2023-02-26T13:23:12;7.50;74.60
55777;DHT22;54079;44.540;18.784;2023-02-26T13:25:44;7.90;73.20
55777;DHT22;54079;44.540;18.784;2023-02-26T13:31:12;8.00;72.30
55777;DHT22;54079;44.540;18.784;2023-02-26T13:33:41;7.90;72.60
55777;DHT22;54079;44.540;18.784;2023-02-26T13:36:08;7.60;73.30
55777;DHT22;54079;44.540;18.784;2023-02-26T13:41:26;7.70;73.60
55777;DHT22;54079;44.540;18.784;2023-02-26T13:44:29;7.80;73.10
